Time;durP1;ratioP1;P1;durP2;ratioP2;P2;SDS_P1;SDS_P2;PMS_P1;PMS_P2;Temp;Humidity;BMP_temperature;BMP_pressure;BME280_temperature;BME280_humidity;BME280_pressure;Samples;Min_cycle;Max_cycle;Signal;HPM_P1;HPM_P2
2022/09/10 00:00:12;;;;;;;0.80;0.40;;;;;;;17.33;70.26;99321.69;342467;28;1975;-80
2022/09/10 00:00:24;;;;;;;2.20;0.40;;;;;;;17.32;70.21;99317.38;343314;28;1865;-80
2022/09/10 00:00:38;;;;;;;2.35;0.40;;;;;;;17.31;70.37;99319.16;343317;28;1085;-80
2022/09/10 00:00:53;;;;;;;0.73;0.40;;;;;;;17.34;70.58;99319.00;343594;28;1892;-80
2022/09/10 00:01:05;;;;;;;1.02;0.50;;;;;;;17.35;70.77;99319.81;344324;28;1019;-80
2022/09/10 00:01:19;;;;;;;0.90;0.50;;;;;;;17.36;70.61;99321.50;343345;28;1246;-80
2022/09/10 00:01:33;;;;;;;0.65;0.40;;;;;;;17.36;70.53;99311.84;342873;28;1835;-80
2022/09/10 00:01:45;;;;;;;0.55;0.40;;;;;;;17.33;70.45;99325.16;344356;28;1910;-80
2022/09/10 00:01:58;;;;;;;1.17;0.47;;;;;;;17.30;70.59;99317.47;343267;28;1841;-79
2022/09/10 00:02:10;;;;;;;1.48;0.50;;;;;;;17.28;70.54;99318.53;343852;28;1567;-79
2022/09/10 00:02:22;;;;;;;2.05;0.50;;;;;;;17.24;70.42;99311.78;344071;28;986;-79
2022/09/10 00:02:35;;;;;;;2.60;0.50;;;;;;;17.28;70.62;99318.53;343212;28;1808;-81
2022/09/10 00:02:47;;;;;;;2.20;0.47;;;;;;;17.28;70.47;99314.09;344197;28;1074;-80
2022/09/10 00:03:01;;;;;;;1.00;0.47;;;;;;;17.28;70.55;99323.78;344230;28;1217;-80
2022/09/10 00:03:13;;;;;;;0.85;0.50;;;;;;;17.28;70.36;99315.91;344079;28;1171;-80
2022/09/10 00:03:26;;;;;;;0.93;0.50;;;;;;;17.29;70.22;99309.72;344192;28;2122;-80
2022/09/10 00:03:38;;;;;;;1.20;0.50;;;;;;;17.29;70.13;99314.97;344179;28;1517;-82
2022/09/10 00:03:50;;;;;;;1.05;0.40;;;;;;;17.28;70.28;99316.72;344568;28;1042;-80
2022/09/10 00:04:06;;;;;;;1.08;0.40;;;;;;;17.30;70.18;99321.91;343933;28;1288;-80
2022/09/10 00:04:18;;;;;;;1.23;0.43;;;;;;;17.26;70.67;99315.16;343542;28;1752;-80
2022/09/10 00:04:30;;;;;;;1.80;0.47;;;;;;;17.27;70.62;99314.22;344248;28;2032;-80
2022/09/10 00:04:42;;;;;;;2.53;0.40;;;;;;;17.27;70.23;99311.59;342954;28;2033;-80
2022/09/10 00:04:54;;;;;;;2.13;0.40;;;;;;;17.29;70.31;99314.97;344285;28;1161;-80
2022/09/10 00:05:08;;;;;;;1.67;0.40;;;;;;;17.29;70.26;99314.97;344381;28;2471;-80
2022/09/10 00:05:20;;;;;;;0.77;0.40;;;;;;;17.31;70.57;99313.91;343388;28;1648;-80
2022/09/10 00:05:39;;;;;;;1.60;0.50;;;;;;;17.30;69.99;99311.38;344394;28;1120;-80
2022/09/10 00:05:51;;;;;;;1.25;0.40;;;;;;;17.32;70.14;99306.88;343076;28;1154;-80
2022/09/10 00:06:04;;;;;;;1.13;0.40;;;;;;;17.31;70.21;99313.09;343232;28;1011;-79
2022/09/10 00:06:17;;;;;;;1.38;0.50;;;;;;;17.31;69.91;99313.09;342715;28;1064;-79
2022/09/10 00:06:33;;;;;;;1.83;0.50;;;;;;;17.30;69.71;99314.00;343949;28;1839;-81
2022/09/10 00:06:45;;;;;;;1.13;0.40;;;;;;;17.32;70.00;99312.13;343842;28;1271;-79
2022/09/10 00:06:57;;;;;;;0.95;0.40;;;;;;;17.28;70.03;99314.09;344746;28;1782;-80
2022/09/10 00:07:09;;;;;;;1.48;0.40;;;;;;;17.27;70.06;99311.59;344459;28;1306;-80
2022/09/10 00:07:21;;;;;;;1.92;0.43;;;;;;;17.27;69.91;99311.59;344830;28;1340;-80
2022/09/10 00:07:33;;;;;;;1.33;0.50;;;;;;;17.24;69.92;99309.16;344285;28;2159;-80
2022/09/10 00:07:46;;;;;;;1.02;0.50;;;;;;;17.22;70.12;99313.69;344852;28;1052;-80
2022/09/10 00:07:58;;;;;;;1.35;0.40;;;;;;;17.23;70.25;99310.13;345253;28;1520;-80
2022/09/10 00:08:10;;;;;;;1.50;0.40;;;;;;;17.15;70.40;99308.81;345670;28;1032;-79
2022/09/10 00:08:22;;;;;;;1.80;0.55;;;;;;;17.17;70.16;99311.34;345474;28;1511;-81
2022/09/10 00:08:34;;;;;;;1.45;0.60;;;;;;;17.17;70.18;99311.34;345041;28;1428;-79
2022/09/10 00:08:48;;;;;;;1.30;0.50;;;;;;;17.19;70.23;99312.09;345802;28;1068;-80
2022/09/10 00:09:00;;;;;;;2.42;0.45;;;;;;;17.21;70.34;99309.38;345481;28;1509;-79
2022/09/10 00:09:12;;;;;;;2.40;0.43;;;;;;;17.19;70.43;99308.63;345248;28;1495;-80
2022/09/10 00:09:24;;;;;;;2.75;0.57;;;;;;;17.19;70.38;99313.88;344184;28;1340;-79
2022/09/10 00:09:36;;;;;;;1.40;0.50;;;;;;;17.13;70.56;99310.72;342924;28;2025;-79
2022/09/10 00:09:48;;;;;;;1.50;0.50;;;;;;;17.13;70.56;99305.47;344225;28;1018;-80
2022/09/10 00:10:00;;;;;;;1.45;0.40;;;;;;;17.12;70.87;99306.41;342850;28;1180;-80
2022/09/10 00:10:12;;;;;;;1.13;0.43;;;;;;;17.16;70.82;99307.91;342886;28;1055;-80
2022/09/10 00:10:25;;;;;;;1.40;0.47;;;;;;;17.22;70.61;99303.16;343616;28;1899;-79
2022/09/10 00:10:42;;;;;;;1.55;0.40;;;;;;;17.21;70.50;99304.97;342661;28;1733;-81
2022/09/10 00:10:54;;;;;;;1.70;0.40;;;;;;;17.23;70.46;99308.31;341990;28;1071;-79
2022/09/10 00:11:09;;;;;;;1.60;0.50;;;;;;;17.24;70.40;99306.53;341943;28;1903;-79
2022/09/10 00:11:21;;;;;;;1.83;0.60;;;;;;;17.23;70.50;99307.50;342138;28;1713;-79
2022/09/10 00:11:34;;;;;;;1.73;0.55;;;;;;;17.24;70.56;99306.53;343950;28;1500;-80
2022/09/10 00:11:46;;;;;;;0.90;0.40;;;;;;;17.22;70.45;99305.78;343932;28;1681;-80
2022/09/10 00:11:58;;;;;;;0.95;0.40;;;;;;;17.25;70.59;99302.97;343285;28;1162;-80
2022/09/10 00:12:10;;;;;;;0.90;0.40;;;;;;;17.25;70.58;99308.22;344669;28;834;-79
2022/09/10 00:12:22;;;;;;;0.77;0.50;;;;;;;17.24;70.45;99306.53;343830;28;1639;-80
2022/09/10 00:12:35;;;;;;;1.13;0.50;;;;;;;17.23;70.45;99304.88;344502;28;1723;-80
2022/09/10 00:12:47;;;;;;;2.42;0.57;;;;;;;17.23;70.07;99307.50;343550;28;1515;-80
2022/09/10 00:12:59;;;;;;;2.50;0.60;;;;;;;17.22;70.86;99311.06;342993;28;1012;-80
2022/09/10 00:13:12;;;;;;;2.47;0.50;;;;;;;17.22;70.56;99308.41;342937;28;1078;-79
2022/09/10 00:13:24;;;;;;;0.95;0.40;;;;;;;17.23;70.40;99304.88;343902;28;1976;-80
2022/09/10 00:13:38;;;;;;;0.65;0.45;;;;;;;17.24;70.42;99307.38;344596;28;1977;-80
2022/09/10 00:13:51;;;;;;;1.23;0.60;;;;;;;17.21;70.18;99312.00;344361;28;1368;-80
2022/09/10 00:14:08;;;;;;;1.52;0.60;;;;;;;17.21;70.32;99306.75;344418;28;1739;-79
2022/09/10 00:14:22;;;;;;;1.17;0.45;;;;;;;17.23;70.55;99304.88;344620;28;1212;-80
2022/09/10 00:14:34;;;;;;;1.58;0.50;;;;;;;17.23;70.49;99304.88;345157;28;1707;-79
2022/09/10 00:14:46;;;;;;;1.65;0.50;;;;;;;17.22;70.36;99303.16;343630;28;1915;-80
2022/09/10 00:14:58;;;;;;;1.00;0.45;;;;;;;17.23;70.52;99307.50;344648;28;1266;-80
2022/09/10 00:15:11;;;;;;;0.70;0.47;;;;;;;17.24;70.30;99307.38;342949;28;1802;-79
2022/09/10 00:15:23;;;;;;;0.80;0.50;;;;;;;17.25;70.41;99308.22;343623;28;1724;-79
2022/09/10 00:15:44;;;;;;;0.65;0.50;;;;;;;17.25;70.16;99305.59;344664;28;1137;-80
2022/09/10 00:15:56;;;;;;;1.80;0.40;;;;;;;17.24;70.20;99306.53;343196;28;1950;-79
2022/09/10 00:16:10;;;;;;;1.60;0.40;;;;;;;17.22;70.21;99308.41;344089;28;1896;-79
2022/09/10 00:16:23;;;;;;;1.27;0.40;;;;;;;17.20;70.45;99308.50;343914;28;1772;-80
2022/09/10 00:16:35;;;;;;;1.17;0.40;;;;;;;17.21;70.65;99306.75;343497;28;1574;-79
2022/09/10 00:16:48;;;;;;;1.55;0.50;;;;;;;17.17;70.39;99312.19;344316;28;1012;-80
2022/09/10 00:17:00;;;;;;;0.82;0.40;;;;;;;17.19;70.48;99303.38;344524;28;1147;-80
2022/09/10 00:17:12;;;;;;;0.60;0.40;;;;;;;17.14;70.62;99307.16;343946;28;1193;-80
2022/09/10 00:17:27;;;;;;;0.90;0.52;;;;;;;17.15;70.72;99308.81;344160;28;1996;-81
2022/09/10 00:17:40;;;;;;;1.48;0.70;;;;;;;17.13;70.60;99308.09;343123;28;1924;-80
2022/09/10 00:17:51;;;;;;;1.38;0.63;;;;;;;17.14;70.77;99307.16;343850;28;1606;-80
2022/09/10 00:18:03;;;;;;;3.00;0.50;;;;;;;17.14;70.54;99307.16;343663;28;1489;-79
2022/09/10 00:18:18;;;;;;;4.90;0.65;;;;;;;17.09;70.77;99303.97;344497;28;1026;-80
2022/09/10 00:18:30;;;;;;;5.00;0.60;;;;;;;17.11;71.00;99302.09;342992;28;1516;-80
2022/09/10 00:18:42;;;;;;;1.02;0.50;;;;;;;17.12;71.06;99302.94;343715;28;1793;-79
2022/09/10 00:18:56;;;;;;;0.57;0.50;;;;;;;17.11;71.21;99302.09;344837;28;1904;-81
2022/09/10 00:19:08;;;;;;;0.50;0.45;;;;;;;17.07;71.03;99305.84;345391;28;1015;-80
2022/09/10 00:19:21;;;;;;;0.98;0.50;;;;;;;17.04;71.05;99300.78;344923;28;1082;-79
2022/09/10 00:19:32;;;;;;;1.10;0.50;;;;;;;17.06;71.19;99303.31;345077;28;2162;-80
2022/09/10 00:19:44;;;;;;;1.48;0.47;;;;;;;17.07;71.23;99302.41;344426;28;1033;-80
2022/09/10 00:19:58;;;;;;;0.95;0.45;;;;;;;17.04;71.28;99308.66;344118;28;749;-80
2022/09/10 00:20:10;;;;;;;0.70;0.40;;;;;;;17.06;71.15;99306.78;344205;28;1250;-80
2022/09/10 00:20:22;;;;;;;1.10;0.40;;;;;;;17.08;71.33;99302.31;343235;28;1543;-80
2022/09/10 00:20:41;;;;;;;1.35;0.40;;;;;;;17.10;71.12;99303.03;342873;28;1500;-80
2022/09/10 00:20:55;;;;;;;1.20;0.50;;;;;;;17.14;71.09;99301.91;343878;28;2229;-80
2022/09/10 00:21:10;;;;;;;1.50;0.50;;;;;;;17.13;70.79;99297.56;344325;28;1115;-80
2022/09/10 00:21:22;;;;;;;2.40;0.47;;;;;;;17.15;70.83;99302.75;344641;28;1192;-80
2022/09/10 00:21:34;;;;;;;2.15;0.50;;;;;;;17.14;70.85;99301.91;343031;28;2105;-80
2022/09/10 00:21:49;;;;;;;1.80;0.50;;;;;;;17.12;70.66;99303.78;344402;28;1061;-79
2022/09/10 00:22:01;;;;;;;2.42;0.57;;;;;;;17.12;70.87;99301.16;345919;28;1159;-79
2022/09/10 00:22:13;;;;;;;2.28;0.50;;;;;;;17.13;70.88;99302.00;344167;28;1248;-80
2022/09/10 00:22:25;;;;;;;0.52;0.50;;;;;;;17.11;71.00;99302.09;344402;28;1320;-80
2022/09/10 00:22:37;;;;;;;0.57;0.40;;;;;;;17.07;71.22;99305.84;344484;28;1714;-80
2022/09/10 00:22:49;;;;;;;0.95;0.40;;;;;;;17.08;71.25;99302.31;343249;28;2053;-80
2022/09/10 00:23:01;;;;;;;1.27;0.40;;;;;;;17.06;71.32;99298.06;345669;28;1032;-80
2022/09/10 00:23:16;;;;;;;1.38;0.40;;;;;;;17.06;71.18;99301.53;346129;28;1105;-80
2022/09/10 00:23:28;;;;;;;1.23;0.50;;;;;;;17.08;71.14;99296.19;342979;28;1787;-80
2022/09/10 00:23:44;;;;;;;0.68;0.50;;;;;;;17.08;71.34;99302.31;344220;28;1655;-80
2022/09/10 00:23:56;;;;;;;0.77;0.47;;;;;;;17.09;71.15;99293.47;343507;28;2083;-81
2022/09/10 00:24:08;;;;;;;0.70;0.45;;;;;;;17.08;71.11;99299.69;343948;28;1086;-80
2022/09/10 00:24:21;;;;;;;1.27;0.47;;;;;;;17.08;71.35;99291.81;345816;28;1979;-81
2022/09/10 00:24:33;;;;;;;1.10;0.40;;;;;;;17.06;71.53;99292.81;345399;28;1531;-81
2022/09/10 00:24:45;;;;;;;1.13;0.40;;;;;;;17.08;71.58;99299.69;345430;28;1085;-80
2022/09/10 00:24:57;;;;;;;0.98;0.40;;;;;;;17.10;71.46;99292.53;345953;28;1035;-81
2022/09/10 00:25:09;;;;;;;1.25;0.40;;;;;;;17.09;71.24;99298.72;345680;28;1270;-80
2022/09/10 00:25:21;;;;;;;1.10;0.40;;;;;;;17.11;71.08;99302.09;343714;28;1607;-80
2022/09/10 00:25:33;;;;;;;0.65;0.43;;;;;;;17.12;71.39;99298.53;343918;28;1926;-80
2022/09/10 00:25:45;;;;;;;0.60;0.50;;;;;;;17.11;71.14;99293.38;344742;28;1802;-79
2022/09/10 00:25:57;;;;;;;0.70;0.50;;;;;;;17.09;71.13;99303.97;344406;28;1222;-79
2022/09/10 00:26:16;;;;;;;0.68;0.50;;;;;;;17.10;71.09;99295.16;344491;28;872;-80
2022/09/10 00:26:34;;;;;;;0.77;0.50;;;;;;;17.13;70.88;99297.56;341441;28;1601;-80
2022/09/10 00:26:46;;;;;;;1.60;0.50;;;;;;;17.15;71.05;99295.69;341025;29;1090;-80
2022/09/10 00:26:58;;;;;;;2.00;0.50;;;;;;;17.12;70.87;99298.53;340167;29;1057;-80
2022/09/10 00:27:10;;;;;;;1.60;0.47;;;;;;;17.14;70.69;99291.41;340159;29;1012;-80
2022/09/10 00:27:23;;;;;;;1.40;0.50;;;;;;;17.14;70.81;99296.66;340469;29;1778;-80
2022/09/10 00:27:35;;;;;;;1.20;0.60;;;;;;;17.14;70.78;99299.28;340938;29;1794;-81
2022/09/10 00:27:47;;;;;;;0.95;0.55;;;;;;;17.15;70.68;99293.06;341853;29;1037;-80
2022/09/10 00:28:02;;;;;;;0.57;0.40;;;;;;;17.18;70.77;99299.91;342081;29;873;-80
2022/09/10 00:28:15;;;;;;;1.15;0.50;;;;;;;17.17;71.14;99301.69;341804;29;1202;-80
2022/09/10 00:28:27;;;;;;;1.75;0.70;;;;;;;17.17;70.93;99301.69;342205;28;780;-80
2022/09/10 00:28:40;;;;;;;1.75;0.70;;;;;;;17.19;71.13;99298.13;343626;28;746;-80
2022/09/10 00:28:54;;;;;;;1.80;0.50;;;;;;;17.20;70.80;99294.53;343374;28;1701;-80
2022/09/10 00:29:09;;;;;;;4.00;0.60;;;;;;;17.16;71.06;99294.75;344991;28;1247;-81
2022/09/10 00:29:21;;;;;;;3.25;0.50;;;;;;;17.15;70.97;99298.31;343188;28;2327;-81
2022/09/10 00:29:33;;;;;;;1.05;0.40;;;;;;;17.12;70.96;99293.28;343801;28;1814;-80
2022/09/10 00:29:45;;;;;;;1.85;0.50;;;;;;;17.13;71.07;99289.69;345260;28;1261;-81
2022/09/10 00:29:59;;;;;;;1.98;0.50;;;;;;;17.13;71.03;99289.69;345089;28;1116;-80
2022/09/10 00:30:11;;;;;;;1.33;0.50;;;;;;;17.13;71.17;99294.13;343915;28;1492;-79
2022/09/10 00:30:25;;;;;;;0.80;0.50;;;;;;;17.12;71.07;99298.53;344549;28;1500;-80
2022/09/10 00:30:45;;;;;;;0.98;0.47;;;;;;;17.10;71.04;99297.78;343790;28;1336;-80
2022/09/10 00:30:57;;;;;;;0.85;0.50;;;;;;;17.11;71.21;99294.22;343518;28;964;-80
2022/09/10 00:31:09;;;;;;;1.70;0.60;;;;;;;17.12;71.11;99293.28;344450;28;1321;-80
2022/09/10 00:31:22;;;;;;;2.15;0.60;;;;;;;17.13;71.37;99289.69;343958;28;1460;-80
2022/09/10 00:31:36;;;;;;;1.92;0.63;;;;;;;17.14;71.01;99293.16;344059;28;1918;-80
2022/09/10 00:31:48;;;;;;;1.50;0.60;;;;;;;17.15;70.83;99298.31;344230;28;1237;-80
2022/09/10 00:32:03;;;;;;;1.98;0.50;;;;;;;17.17;70.76;99296.44;344468;28;1047;-80
2022/09/10 00:32:15;;;;;;;1.92;0.50;;;;;;;17.13;71.20;99300.19;343119;28;1072;-80
2022/09/10 00:32:26;;;;;;;1.45;0.60;;;;;;;17.11;71.04;99302.09;342575;28;1928;-80
2022/09/10 00:32:38;;;;;;;1.20;0.50;;;;;;;17.13;71.06;99299.38;341715;29;1237;-80
2022/09/10 00:32:51;;;;;;;1.52;0.57;;;;;;;17.15;70.84;99298.31;340812;29;1303;-80
2022/09/10 00:33:03;;;;;;;1.23;0.50;;;;;;;17.16;71.06;99297.41;340258;29;1501;-80
2022/09/10 00:33:18;;;;;;;1.08;0.50;;;;;;;17.16;71.16;99291.28;340385;29;1293;-80
2022/09/10 00:33:29;;;;;;;1.15;0.50;;;;;;;17.15;71.04;99298.31;339284;29;1907;-80
2022/09/10 00:33:42;;;;;;;0.85;0.57;;;;;;;17.18;70.91;99302.53;340048;29;1673;-80
2022/09/10 00:33:54;;;;;;;0.70;0.50;;;;;;;17.19;70.80;99298.13;340456;29;1057;-81
2022/09/10 00:34:07;;;;;;;1.60;0.50;;;;;;;17.15;71.13;99298.31;340238;29;1587;-80
2022/09/10 00:34:19;;;;;;;1.50;0.55;;;;;;;17.15;70.89;99303.56;340683;29;1510;-80
2022/09/10 00:34:31;;;;;;;0.95;0.57;;;;;;;17.08;71.26;99302.31;341833;29;1286;-80
2022/09/10 00:34:43;;;;;;;1.02;0.52;;;;;;;17.07;71.31;99300.59;340683;29;1592;-80
2022/09/10 00:34:55;;;;;;;2.10;0.50;;;;;;;17.09;71.25;99296.09;343194;28;1039;-79
2022/09/10 00:35:07;;;;;;;2.05;0.50;;;;;;;17.08;71.18;99297.06;343845;28;1601;-79
2022/09/10 00:35:20;;;;;;;1.73;0.50;;;;;;;17.09;71.09;99303.97;343821;28;1208;-79
2022/09/10 00:35:33;;;;;;;0.90;0.50;;;;;;;17.08;71.05;99301.44;343297;28;1635;-80
2022/09/10 00:35:45;;;;;;;1.02;0.50;;;;;;;17.05;71.42;99299.03;343756;28;1087;-80
2022/09/10 00:35:57;;;;;;;1.10;0.52;;;;;;;17.06;71.57;99298.91;344297;28;1051;-79
2022/09/10 00:36:17;;;;;;;0.65;0.47;;;;;;;17.03;71.58;99299.13;343864;28;1790;-80
2022/09/10 00:36:32;;;;;;;0.85;0.40;;;;;;;17.08;71.13;99301.44;342028;28;1051;-80
2022/09/10 00:36:44;;;;;;;1.33;0.50;;;;;;;17.07;71.29;99297.97;343210;28;1313;-80
2022/09/10 00:36:56;;;;;;;2.42;0.60;;;;;;;17.07;71.43;99300.59;341378;28;1422;-81
2022/09/10 00:37:08;;;;;;;2.15;0.60;;;;;;;17.08;71.42;99296.19;342268;28;1964;-81
2022/09/10 00:37:20;;;;;;;1.80;0.60;;;;;;;17.07;71.21;99297.16;340698;29;1294;-80
2022/09/10 00:37:33;;;;;;;2.20;0.60;;;;;;;17.05;71.42;99301.66;339732;29;1744;-79
2022/09/10 00:37:45;;;;;;;2.42;0.50;;;;;;;17.07;71.33;99297.97;339853;29;1738;-79
2022/09/10 00:37:57;;;;;;;2.20;0.50;;;;;;;17.10;71.36;99304.81;341812;29;1095;-80
2022/09/10 00:38:10;;;;;;;1.40;0.60;;;;;;;17.12;71.08;99300.28;341599;29;1565;-80
2022/09/10 00:38:22;;;;;;;1.40;0.60;;;;;;;17.10;71.08;99294.31;339801;29;1215;-79
2022/09/10 00:38:34;;;;;;;2.03;0.60;;;;;;;17.10;71.13;99295.16;341057;29;1574;-80
2022/09/10 00:38:49;;;;;;;2.00;0.52;;;;;;;17.11;71.24;99298.63;341847;29;1226;-80
2022/09/10 00:39:05;;;;;;;0.88;0.50;;;;;;;17.10;71.22;99294.31;342020;29;1224;-80
2022/09/10 00:39:19;;;;;;;1.00;0.50;;;;;;;17.11;71.35;99301.25;339548;29;1887;-79
2022/09/10 00:39:34;;;;;;;1.10;0.45;;;;;;;17.11;71.21;99291.59;339428;29;1045;-79
2022/09/10 00:39:46;;;;;;;0.93;0.50;;;;;;;17.05;71.44;99297.25;339875;29;1180;-80
2022/09/10 00:40:01;;;;;;;1.05;0.60;;;;;;;17.06;71.37;99292.81;340412;29;1028;-80
2022/09/10 00:40:15;;;;;;;2.05;0.60;;;;;;;17.08;71.29;99302.31;339995;29;1967;-80
2022/09/10 00:40:27;;;;;;;2.40;0.70;;;;;;;17.08;71.47;99299.69;341046;29;1753;-80
2022/09/10 00:40:40;;;;;;;1.60;0.70;;;;;;;17.12;71.33;99306.41;341150;29;1283;-80
2022/09/10 00:40:52;;;;;;;0.82;0.40;;;;;;;17.13;71.18;99302.84;343373;28;1080;-79
2022/09/10 00:41:05;;;;;;;0.70;0.40;;;;;;;17.11;71.44;99302.09;343013;28;2096;-80
2022/09/10 00:41:18;;;;;;;1.35;0.57;;;;;;;17.12;71.16;99309.03;342722;28;1103;-80
2022/09/10 00:41:32;;;;;;;1.65;0.60;;;;;;;17.08;71.27;99304.94;343505;28;1918;-79
2022/09/10 00:41:47;;;;;;;1.90;0.50;;;;;;;17.10;71.18;99304.81;343071;28;1378;-80
2022/09/10 00:41:59;;;;;;;1.85;0.57;;;;;;;17.08;71.19;99304.06;342962;28;1008;-79
2022/09/10 00:42:11;;;;;;;1.30;0.60;;;;;;;17.08;71.27;99304.94;344351;28;1572;-79
2022/09/10 00:42:24;;;;;;;1.60;0.60;;;;;;;17.08;71.22;99302.31;342735;28;2042;-81
2022/09/10 00:42:36;;;;;;;1.95;0.60;;;;;;;17.08;71.09;99302.31;343152;28;1119;-79
2022/09/10 00:42:48;;;;;;;2.20;0.60;;;;;;;17.03;71.42;99304.38;344259;28;1086;-80
2022/09/10 00:43:00;;;;;;;1.55;0.57;;;;;;;17.02;71.45;99302.69;343649;28;1646;-79
2022/09/10 00:43:15;;;;;;;0.80;0.45;;;;;;;17.03;71.54;99304.38;344381;28;1495;-80
2022/09/10 00:43:45;;;;;;;0.90;0.50;;;;;;;17.04;71.63;99300.78;343521;28;2198;-80
2022/09/10 00:44:01;;;;;;;1.17;0.40;;;;;;;16.97;71.76;99305.59;343633;28;1555;-80
2022/09/10 00:44:40;;;;;;;1.13;0.40;;;;;;;16.95;71.90;99298.78;344991;28;1333;-80
2022/09/10 00:44:57;;;;;;;3.40;0.47;;;;;;;16.96;72.08;99303.06;342406;28;1044;-79
2022/09/10 00:45:21;;;;;;;4.10;0.60;;;;;;;16.98;72.04;99306.44;342919;28;1474;-80
2022/09/10 00:45:33;;;;;;;2.47;0.70;;;;;;;17.02;71.93;99305.31;342739;28;1137;-79
2022/09/10 00:45:51;;;;;;;0.93;0.50;;;;;;;17.02;71.78;99297.41;343026;28;1215;-80
2022/09/10 00:46:03;;;;;;;0.95;0.50;;;;;;;17.03;71.74;99301.75;343295;28;1939;-80
2022/09/10 00:46:35;;;;;;;1.13;0.57;;;;;;;17.05;71.87;99301.66;344175;28;1722;-79
2022/09/10 00:46:50;;;;;;;2.63;0.57;;;;;;;17.05;71.76;99299.03;344411;28;1235;-79
2022/09/10 00:47:04;;;;;;;1.75;0.50;;;;;;;17.07;71.95;99297.97;343939;28;1273;-81
2022/09/10 00:47:25;;;;;;;2.75;0.60;;;;;;;17.08;71.68;99297.06;344132;28;1257;-79
2022/09/10 00:47:38;;;;;;;1.75;0.55;;;;;;;17.10;71.73;99297.78;344118;28;1287;-79
2022/09/10 00:47:53;;;;;;;1.90;0.77;;;;;;;17.11;71.83;99294.22;344095;28;1232;-79
2022/09/10 00:48:17;;;;;;;2.20;0.70;;;;;;;17.09;71.58;99292.63;343802;28;2014;-79
2022/09/10 00:48:31;;;;;;;1.58;0.40;;;;;;;17.07;71.75;99292.72;343963;28;1913;-80
2022/09/10 00:48:42;;;;;;;1.95;0.50;;;;;;;17.08;71.84;99297.06;343987;28;1758;-80
2022/09/10 00:48:57;;;;;;;1.50;0.50;;;;;;;17.07;71.67;99300.59;343833;28;1051;-80
2022/09/10 00:49:24;;;;;;;0.40;0.40;;;;;;;17.09;71.55;99298.72;344640;28;1166;-80
2022/09/10 00:49:41;;;;;;;2.25;0.50;;;;;;;17.09;71.65;99296.09;343150;28;1414;-80
2022/09/10 00:50:24;;;;;;;2.58;0.55;;;;;;;17.11;71.36;99304.72;342810;28;1759;-80
2022/09/10 00:50:41;;;;;;;0.57;0.50;;;;;;;17.10;71.65;99297.78;338550;29;1591;-81
2022/09/10 00:50:53;;;;;;;0.93;0.50;;;;;;;17.07;71.84;99295.34;341583;29;1080;-79
2022/09/10 00:51:05;;;;;;;1.42;0.50;;;;;;;17.06;71.86;99298.06;343057;28;1184;-81
2022/09/10 00:51:21;;;;;;;1.65;0.50;;;;;;;17.07;71.52;99305.03;342465;28;1357;-80
2022/09/10 00:51:35;;;;;;;1.45;0.60;;;;;;;16.99;72.11;99300.25;342244;28;1907;-80
2022/09/10 00:51:51;;;;;;;1.05;0.60;;;;;;;17.03;71.92;99298.28;344208;28;1107;-79
2022/09/10 00:52:04;;;;;;;0.77;0.50;;;;;;;17.03;71.95;99301.75;344033;28;1095;-80
2022/09/10 00:52:16;;;;;;;0.77;0.50;;;;;;;17.05;71.97;99299.88;344060;28;1083;-80
2022/09/10 00:52:29;;;;;;;0.65;0.50;;;;;;;17.06;71.62;99301.53;343939;28;2027;-80
2022/09/10 00:52:41;;;;;;;0.52;0.50;;;;;;;17.05;71.86;99304.28;344011;28;1568;-79
2022/09/10 00:53:01;;;;;;;0.63;0.50;;;;;;;17.04;71.67;99300.78;343542;28;1172;-79
2022/09/10 00:53:18;;;;;;;2.03;0.50;;;;;;;17.03;71.88;99301.75;344361;28;1598;-79
2022/09/10 00:53:31;;;;;;;2.60;0.60;;;;;;;17.06;71.81;99304.16;345195;28;2049;-80
2022/09/10 00:53:43;;;;;;;2.03;0.60;;;;;;;17.07;71.90;99303.22;344507;28;1657;-79
2022/09/10 00:53:56;;;;;;;1.42;0.50;;;;;;;17.08;71.78;99302.31;345157;28;1339;-79
2022/09/10 00:54:08;;;;;;;1.30;0.50;;;;;;;17.09;71.59;99298.72;345460;28;1219;-80
2022/09/10 00:54:24;;;;;;;1.60;0.50;;;;;;;17.09;71.86;99298.72;345424;28;1339;-80
2022/09/10 00:54:39;;;;;;;0.80;0.40;;;;;;;17.11;71.68;99296.84;345360;28;2239;-80
2022/09/10 00:54:52;;;;;;;0.95;0.40;;;;;;;17.13;71.68;99300.19;342436;28;1032;-79
2022/09/10 00:55:05;;;;;;;1.90;0.50;;;;;;;17.14;71.53;99301.03;342388;28;1174;-80
2022/09/10 00:55:17;;;;;;;2.83;0.57;;;;;;;17.09;71.52;99298.72;342152;28;1556;-79
2022/09/10 00:55:30;;;;;;;2.20;0.60;;;;;;;17.08;71.56;99298.81;343002;28;2262;-80
2022/09/10 00:55:48;;;;;;;2.05;0.63;;;;;;;17.10;71.52;99294.31;341313;28;1831;-80
2022/09/10 00:56:04;;;;;;;1.10;0.50;;;;;;;17.09;71.51;99293.47;343433;28;1224;-80
2022/09/10 00:56:16;;;;;;;0.63;0.40;;;;;;;17.07;71.80;99308.47;342981;28;1999;-79
2022/09/10 00:56:28;;;;;;;1.30;0.50;;;;;;;17.07;71.67;99305.84;343639;28;1787;-80
2022/09/10 00:56:41;;;;;;;1.50;0.50;;;;;;;17.02;71.81;99302.69;343450;28;1070;-79
2022/09/10 00:56:58;;;;;;;1.02;0.43;;;;;;;16.94;71.94;99299.69;344309;28;1018;-79
2022/09/10 00:57:16;;;;;;;1.15;0.50;;;;;;;16.90;72.27;99300.84;344998;28;1031;-80
2022/09/10 00:57:28;;;;;;;1.20;0.60;;;;;;;16.92;72.29;99301.59;343731;28;1724;-80
2022/09/10 00:57:41;;;;;;;1.10;0.50;;;;;;;16.90;72.31;99300.84;343557;28;1612;-80
2022/09/10 00:57:57;;;;;;;1.13;0.50;;;;;;;16.84;72.56;99301.25;343875;28;1259;-79
2022/09/10 00:58:12;;;;;;;1.00;0.57;;;;;;;16.89;72.53;99301.81;343570;28;1025;-79
2022/09/10 00:58:26;;;;;;;0.90;0.50;;;;;;;16.91;72.43;99298.13;343581;28;1599;-80
2022/09/10 00:58:38;;;;;;;1.33;0.50;;;;;;;16.91;72.61;99303.38;342354;28;1648;-80
2022/09/10 00:58:51;;;;;;;1.50;0.52;;;;;;;16.94;72.42;99299.69;341964;28;1312;-80
2022/09/10 00:59:07;;;;;;;1.90;0.60;;;;;;;16.96;72.27;99300.44;341339;29;1105;-79
2022/09/10 00:59:22;;;;;;;1.40;0.55;;;;;;;16.96;72.16;99298.69;341934;28;1545;-79
2022/09/10 00:59:34;;;;;;;1.42;0.50;;;;;;;16.97;72.32;99304.78;341899;29;844;-81
2022/09/10 00:59:51;;;;;;;1.40;0.45;;;;;;;16.96;72.37;99300.44;341211;29;1130;-80
2022/09/10 01:00:08;;;;;;;1.25;0.50;;;;;;;16.98;72.24;99303.81;341671;28;1828;-80
2022/09/10 01:00:21;;;;;;;0.98;0.60;;;;;;;16.96;71.86;99305.69;342000;28;1043;-80
2022/09/10 01:00:33;;;;;;;0.90;0.50;;;;;;;16.95;72.08;99306.66;341226;29;1050;-80
2022/09/10 01:00:46;;;;;;;1.00;0.40;;;;;;;16.97;71.97;99310.03;341788;28;2005;-79
2022/09/10 01:01:01;;;;;;;1.10;0.50;;;;;;;16.89;72.17;99307.06;341321;29;1113;-78
2022/09/10 01:01:13;;;;;;;1.65;0.60;;;;;;;16.87;72.29;99306.31;341102;29;1076;-80
2022/09/10 01:01:25;;;;;;;1.77;0.50;;;;;;;16.89;72.43;99304.44;342534;28;1560;-79
2022/09/10 01:01:39;;;;;;;1.45;0.50;;;;;;;16.87;72.48;99303.69;342129;28;1752;-79
2022/09/10 01:01:51;;;;;;;1.08;0.50;;;;;;;16.90;72.48;99304.34;342202;28;1242;-79
2022/09/10 01:02:03;;;;;;;1.20;0.60;;;;;;;16.87;72.35;99303.69;340746;28;2095;-80
2022/09/10 01:02:15;;;;;;;1.40;0.60;;;;;;;16.89;72.41;99304.44;341273;29;1757;-80
2022/09/10 01:02:27;;;;;;;1.73;0.60;;;;;;;16.86;72.48;99302.84;341212;29;1287;-79
2022/09/10 01:02:39;;;;;;;2.60;0.60;;;;;;;16.84;72.66;99302.09;341124;29;1050;-79
2022/09/10 01:02:53;;;;;;;2.75;0.60;;;;;;;16.88;72.52;99302.72;341282;29;1174;-79
2022/09/10 01:03:10;;;;;;;1.15;0.47;;;;;;;16.79;72.77;99301.50;340983;29;1138;-79
2022/09/10 01:03:22;;;;;;;0.70;0.50;;;;;;;16.83;72.57;99302.19;339965;29;1273;-79
2022/09/10 01:03:39;;;;;;;1.17;0.60;;;;;;;16.87;72.53;99301.06;339329;29;1742;-81
2022/09/10 01:03:52;;;;;;;1.90;0.55;;;;;;;16.87;72.63;99303.69;338990;29;1447;-80
2022/09/10 01:04:06;;;;;;;1.50;0.50;;;;;;;16.89;72.68;99301.81;339967;29;1620;-80
2022/09/10 01:04:18;;;;;;;1.00;0.50;;;;;;;16.91;72.49;99305.16;341703;28;1352;-79
2022/09/10 01:04:31;;;;;;;1.58;0.50;;;;;;;16.82;72.16;99300.50;342483;28;2207;-80
2022/09/10 01:04:43;;;;;;;1.60;0.52;;;;;;;16.85;72.31;99302.94;342209;28;1780;-79
2022/09/10 01:04:57;;;;;;;2.70;0.57;;;;;;;16.88;72.11;99305.34;342783;28;1350;-79
2022/09/10 01:05:10;;;;;;;2.30;0.50;;;;;;;16.88;72.13;99305.34;341918;28;1686;-81
2022/09/10 01:05:23;;;;;;;1.70;0.40;;;;;;;16.85;72.44;99295.06;342436;28;1252;-79
2022/09/10 01:05:37;;;;;;;1.95;0.50;;;;;;;16.83;72.52;99299.56;342658;28;995;-79
2022/09/10 01:05:50;;;;;;;3.42;0.60;;;;;;;16.83;72.60;99302.19;342649;28;1188;-79
2022/09/10 01:06:02;;;;;;;3.78;0.60;;;;;;;16.76;72.76;99305.19;342349;28;1076;-79
2022/09/10 01:06:14;;;;;;;3.25;0.60;;;;;;;16.77;72.90;99304.22;342539;28;1072;-79